createdAt,value
2022-09-21T00:00:44.628Z,50.55
2022-09-21T00:03:11.149Z,50.79
2022-09-21T00:05:38.196Z,50.82
2022-09-21T00:08:06.716Z,50.78
2022-09-21T00:10:34.086Z,50.71
2022-09-21T00:13:02.834Z,51.08
2022-09-21T00:15:30.433Z,51.12
2022-09-21T00:17:58.371Z,51.25
2022-09-21T00:20:25.916Z,50.97
2022-09-21T00:22:52.616Z,51.16
2022-09-21T00:25:20.192Z,50.90
2022-09-21T00:27:48.571Z,50.85
2022-09-21T00:30:15.299Z,51.06
2022-09-21T00:32:41.588Z,50.87
2022-09-21T00:35:09.374Z,50.80
2022-09-21T00:37:36.143Z,50.74
2022-09-21T00:40:03.985Z,50.96
2022-09-21T00:42:33.371Z,51.15
2022-09-21T00:45:00.450Z,50.97
2022-09-21T00:47:33.822Z,50.97
2022-09-21T00:50:05.248Z,50.91
2022-09-21T00:52:36.873Z,51.12
2022-09-21T00:55:17.281Z,51.65
2022-09-21T00:57:45.925Z,50.88
2022-09-21T01:00:12.181Z,51.37
2022-09-21T01:02:38.948Z,50.42
2022-09-21T01:05:07.417Z,50.59
2022-09-21T01:07:37.994Z,50.66
2022-09-21T01:10:09.222Z,50.82
2022-09-21T01:12:42.761Z,50.92
2022-09-21T01:15:14.916Z,50.91
2022-09-21T01:17:53.604Z,51.26
2022-09-21T01:20:39.340Z,50.62
2022-09-21T01:23:27.984Z,51.09
2022-09-21T01:26:01.577Z,51.02
2022-09-21T01:28:51.501Z,51.00
2022-09-21T01:31:24.286Z,50.74
2022-09-21T01:33:59.122Z,50.93
2022-09-21T01:36:30.947Z,50.63
2022-09-21T01:39:08.631Z,50.97
2022-09-21T01:41:37.599Z,50.49
2022-09-21T01:44:12.318Z,50.97
2022-09-21T01:46:39.395Z,50.68
2022-09-21T01:49:13.039Z,50.92
2022-09-21T01:51:43.786Z,50.64
2022-09-21T01:54:21.377Z,50.96
2022-09-21T01:56:52.542Z,50.88
2022-09-21T01:59:24.777Z,51.00
2022-09-21T02:01:59.249Z,51.04
2022-09-21T02:04:26.123Z,50.63
2022-09-21T02:06:53.060Z,50.52
2022-09-21T02:09:19.454Z,50.47
2022-09-21T02:11:45.997Z,50.72
2022-09-21T02:14:16.925Z,50.77
2022-09-21T02:17:05.017Z,51.22
2022-09-21T02:19:40.422Z,50.90
2022-09-21T02:22:33.192Z,50.85
2022-09-21T02:25:08.412Z,50.75
2022-09-21T02:27:53.442Z,50.46
2022-09-21T02:30:22.265Z,50.47
2022-09-21T02:33:02.145Z,50.01
2022-09-21T02:35:48.137Z,50.42
2022-09-21T02:38:22.592Z,50.30
2022-09-21T02:40:56.668Z,50.45
2022-09-21T02:43:31.255Z,50.34
2022-09-21T02:46:06.769Z,50.62
2022-09-21T02:48:41.743Z,50.50
2022-09-21T02:51:16.444Z,50.99
2022-09-21T02:53:44.625Z,50.42
2022-09-21T02:56:13.033Z,50.45
2022-09-21T02:58:43.541Z,50.89
2022-09-21T03:01:14.585Z,50.72
2022-09-21T03:03:41.047Z,50.69
2022-09-21T03:06:07.647Z,50.96
2022-09-21T03:08:33.953Z,50.72
2022-09-21T03:11:00.822Z,50.87
2022-09-21T03:13:27.116Z,50.41
2022-09-21T03:16:01.761Z,50.96
2022-09-21T03:18:29.560Z,50.67
2022-09-21T03:20:56.137Z,51.06
2022-09-21T03:23:22.783Z,50.93
2022-09-21T03:25:49.740Z,50.58
2022-09-21T03:28:16.140Z,50.78
2022-09-21T03:30:42.728Z,50.42
2022-09-21T03:33:09.599Z,50.88
2022-09-21T03:35:35.912Z,50.47
2022-09-21T03:38:02.777Z,50.91
2022-09-21T03:40:29.440Z,50.46
2022-09-21T03:42:55.749Z,50.83
2022-09-21T03:45:22.068Z,50.75
2022-09-21T03:47:48.593Z,50.31
2022-09-21T03:50:15.633Z,50.43
2022-09-21T03:52:42.037Z,50.64
2022-09-21T03:55:09.408Z,50.69
2022-09-21T03:57:36.560Z,50.55
2022-09-21T04:00:06.797Z,50.08
2022-09-21T04:02:33.195Z,49.98
2022-09-21T04:04:59.959Z,50.30
2022-09-21T04:07:26.443Z,50.31
2022-09-21T04:09:53.499Z,50.69
2022-09-21T04:12:22.928Z,50.84
2022-09-21T04:14:49.677Z,50.99
2022-09-21T04:17:16.171Z,50.83
2022-09-21T04:19:42.933Z,50.82
2022-09-21T04:22:09.455Z,50.94
2022-09-21T04:24:35.736Z,51.05
2022-09-21T04:27:02.023Z,50.53
2022-09-21T04:29:28.317Z,50.28
2022-09-21T04:31:54.654Z,50.53
2022-09-21T04:34:21.090Z,50.17
2022-09-21T04:36:47.385Z,50.46
2022-09-21T04:39:13.669Z,50.65
2022-09-21T04:41:39.984Z,50.63
2022-09-21T04:44:06.375Z,50.80
2022-09-21T04:46:32.782Z,50.62
2022-09-21T04:48:59.217Z,50.58
2022-09-21T04:51:25.525Z,50.83
2022-09-21T04:53:52.040Z,50.01
2022-09-21T04:56:18.362Z,50.29
2022-09-21T04:58:44.876Z,50.38
2022-09-21T05:01:11.851Z,51.00
2022-09-21T05:03:38.602Z,49.99
2022-09-21T05:06:05.344Z,50.58
2022-09-21T05:08:50.439Z,50.52
2022-09-21T05:11:22.730Z,51.35
2022-09-21T05:13:49.013Z,51.17
2022-09-21T05:16:16.735Z,50.71
2022-09-21T05:18:43.566Z,50.53
2022-09-21T05:21:11.970Z,50.26
2022-09-21T05:23:38.490Z,50.49
2022-09-21T05:26:05.188Z,50.69
2022-09-21T05:28:33.777Z,51.01
2022-09-21T05:31:17.675Z,50.90
2022-09-21T05:33:52.300Z,50.74
2022-09-21T05:36:45.048Z,51.10
2022-09-21T05:39:11.968Z,50.52
2022-09-21T05:41:38.583Z,50.77
2022-09-21T05:44:05.330Z,50.94
2022-09-21T05:46:39.515Z,50.48
2022-09-21T05:49:14.879Z,50.84
2022-09-21T05:52:14.725Z,51.35
2022-09-21T05:54:56.420Z,51.34
2022-09-21T05:57:49.726Z,51.34
2022-09-21T06:00:21.492Z,51.73
2022-09-21T06:02:57.513Z,50.94
2022-09-21T06:05:24.125Z,51.54
2022-09-21T06:07:50.535Z,51.52
2022-09-21T06:10:17.071Z,51.49
2022-09-21T06:12:43.497Z,51.56
2022-09-21T06:15:12.436Z,51.54
2022-09-21T06:17:38.743Z,51.40
2022-09-21T06:20:06.994Z,51.48
2022-09-21T06:22:34.178Z,51.13
2022-09-21T06:25:00.512Z,51.76
2022-09-21T06:27:28.116Z,51.21
2022-09-21T06:29:54.495Z,51.21
2022-09-21T06:32:20.968Z,51.44
2022-09-21T06:34:47.243Z,51.85
2022-09-21T06:37:13.545Z,52.00
2022-09-21T06:39:39.964Z,51.88
2022-09-21T06:42:06.316Z,52.01
2022-09-21T06:44:32.618Z,51.80
2022-09-21T06:46:58.926Z,51.96
2022-09-21T06:49:28.505Z,52.20
2022-09-21T06:51:55.755Z,51.88
2022-09-21T06:54:22.072Z,51.70
2022-09-21T06:56:48.570Z,51.92
2022-09-21T06:59:14.869Z,51.81
2022-09-21T07:01:41.341Z,51.56
2022-09-21T07:04:09.269Z,51.87
2022-09-21T07:06:35.717Z,52.23
2022-09-21T07:11:49.651Z,52.32
2022-09-21T07:14:15.943Z,52.25
2022-09-21T07:16:43.280Z,52.17
2022-09-21T07:19:11.601Z,52.81
2022-09-21T07:21:38.367Z,52.72
2022-09-21T07:24:09.589Z,52.64
2022-09-21T07:26:38.160Z,53.57
2022-09-21T07:29:04.614Z,54.42
2022-09-21T07:31:31.089Z,55.56
2022-09-21T07:33:58.987Z,55.89
2022-09-21T07:36:25.485Z,55.40
2022-09-21T07:38:53.912Z,55.02
2022-09-21T07:41:20.521Z,54.68
2022-09-21T07:43:47.163Z,54.08
2022-09-21T07:46:15.033Z,53.50
2022-09-21T07:48:41.603Z,53.18
2022-09-21T07:51:10.977Z,51.80
2022-09-21T07:53:38.981Z,51.29
2022-09-21T07:56:07.805Z,50.14
2022-09-21T07:58:54.202Z,48.93
2022-09-21T08:01:20.661Z,47.83
2022-09-21T08:03:54.212Z,46.21
2022-09-21T08:06:21.969Z,46.67
2022-09-21T08:08:51.528Z,46.24
2022-09-21T08:11:22.380Z,46.42
2022-09-21T08:13:48.953Z,46.98
2022-09-21T08:16:15.303Z,46.38
2022-09-21T08:18:41.917Z,46.55
2022-09-21T08:21:12.137Z,46.27
2022-09-21T08:23:42.828Z,46.47
2022-09-21T08:26:16.324Z,45.98
2022-09-21T08:28:42.613Z,46.36
2022-09-21T08:31:10.142Z,46.44
2022-09-21T08:33:36.637Z,46.46
2022-09-21T08:36:04.256Z,46.77
2022-09-21T08:38:35.475Z,46.68
2022-09-21T08:41:11.119Z,46.64
2022-09-21T08:43:41.998Z,46.50
2022-09-21T08:46:28.981Z,46.65
2022-09-21T08:49:00.200Z,46.61
2022-09-21T08:51:33.712Z,46.74
2022-09-21T08:54:07.001Z,46.90
2022-09-21T08:57:00.703Z,46.91
2022-09-21T08:59:20.716Z,46.77
2022-09-21T09:02:07.753Z,47.31
2022-09-21T09:05:10.052Z,47.13
2022-09-21T09:08:01.240Z,46.37
2022-09-21T09:10:30.621Z,46.69
2022-09-21T09:13:16.013Z,46.72
2022-09-21T09:16:06.660Z,46.50
2022-09-21T09:18:39.080Z,46.46
2022-09-21T09:21:37.623Z,46.08
2022-09-21T09:24:08.838Z,46.20
2022-09-21T09:26:42.510Z,45.57
2022-09-21T09:29:21.640Z,45.06
2022-09-21T09:31:48.694Z,45.50
2022-09-21T09:34:24.796Z,44.97
2022-09-21T09:36:59.423Z,44.42
2022-09-21T09:39:29.721Z,44.45
2022-09-21T09:42:22.925Z,44.04
2022-09-21T09:45:07.182Z,43.75
2022-09-21T09:48:04.805Z,43.54
2022-09-21T09:50:38.898Z,43.72
2022-09-21T09:53:16.058Z,43.72
2022-09-21T09:55:52.297Z,44.08
2022-09-21T09:58:24.250Z,44.24
2022-09-21T10:00:55.384Z,43.45
2022-09-21T10:03:26.801Z,43.50
2022-09-21T10:05:54.108Z,44.04
2022-09-21T10:08:42.074Z,43.28
2022-09-21T10:11:10.165Z,43.16
2022-09-21T10:13:39.980Z,42.57
2022-09-21T10:16:13.780Z,41.58
2022-09-21T10:18:47.589Z,41.27
2022-09-21T10:21:25.478Z,41.68
2022-09-21T10:23:57.058Z,42.24
2022-09-21T10:26:23.550Z,43.07
2022-09-21T10:29:02.217Z,41.89
2022-09-21T10:31:30.316Z,42.88
2022-09-21T10:34:14.412Z,42.12
2022-09-21T10:36:41.503Z,41.95
2022-09-21T10:39:18.765Z,40.53
2022-09-21T10:41:50.572Z,40.36
2022-09-21T10:44:19.187Z,41.55
2022-09-21T10:46:47.341Z,42.22
2022-09-21T10:49:27.409Z,40.23
2022-09-21T10:51:57.419Z,40.74
2022-09-21T10:54:30.244Z,40.18
2022-09-21T10:57:03.729Z,39.68
2022-09-21T10:59:32.772Z,40.49
2022-09-21T11:02:00.694Z,40.49
2022-09-21T11:04:29.943Z,39.58
2022-09-21T11:07:20.569Z,39.64
2022-09-21T11:10:09.572Z,39.82
2022-09-21T11:12:54.058Z,40.27
2022-09-21T11:15:40.529Z,39.26
2022-09-21T11:18:37.527Z,39.37
2022-09-21T11:21:36.470Z,39.28
2022-09-21T11:24:39.467Z,39.26
2022-09-21T11:27:18.710Z,38.49
2022-09-21T11:29:57.627Z,38.13
2022-09-21T11:32:29.887Z,38.02
2022-09-21T11:35:11.286Z,37.98
2022-09-21T11:37:59.494Z,38.13
2022-09-21T11:40:44.837Z,38.13
2022-09-21T11:43:22.680Z,37.89
2022-09-21T11:46:06.692Z,37.09
2022-09-21T11:49:00.955Z,36.67
2022-09-21T11:51:58.794Z,36.04
2022-09-21T11:54:57.192Z,36.56
2022-09-21T11:57:40.842Z,35.82
2022-09-21T12:00:15.375Z,36.81
2022-09-21T12:03:23.098Z,35.88
2022-09-21T12:06:15.292Z,36.38
2022-09-21T12:08:55.866Z,36.13
2022-09-21T12:11:48.443Z,36.30
2022-09-21T12:14:47.179Z,36.77
2022-09-21T12:17:17.828Z,36.19
2022-09-21T12:20:13.957Z,36.64
2022-09-21T12:22:44.285Z,36.77
2022-09-21T12:25:10.569Z,36.98
2022-09-21T12:27:51.933Z,36.66
2022-09-21T12:30:21.004Z,36.63
2022-09-21T12:32:57.733Z,36.33
2022-09-21T12:36:00.183Z,36.91
2022-09-21T12:39:01.554Z,37.05
2022-09-21T12:41:53.694Z,36.47
2022-09-21T12:44:34.113Z,36.93
2022-09-21T12:47:11.389Z,35.95
2022-09-21T12:49:48.221Z,35.90
2022-09-21T12:52:33.132Z,35.81
2022-09-21T12:55:37.757Z,36.46
2022-09-21T12:58:19.089Z,35.15
2022-09-21T13:00:59.836Z,35.02
2022-09-21T13:03:37.262Z,34.99
2022-09-21T13:06:29.500Z,35.16
2022-09-21T13:08:57.066Z,35.30
2022-09-21T13:11:23.528Z,35.28
2022-09-21T13:13:59.698Z,34.12
2022-09-21T13:16:30.534Z,33.69
2022-09-21T13:19:00.608Z,33.53
2022-09-21T13:21:32.134Z,33.16
2022-09-21T13:24:08.551Z,32.29
2022-09-21T13:26:40.724Z,32.93
2022-09-21T13:29:18.989Z,32.17
2022-09-21T13:32:00.715Z,32.46
2022-09-21T13:34:41.765Z,32.39
2022-09-21T13:37:11.142Z,32.49
2022-09-21T13:39:55.601Z,31.88
2022-09-21T13:42:33.606Z,32.55
2022-09-21T13:44:59.826Z,32.85
2022-09-21T13:47:32.866Z,32.22
2022-09-21T13:50:03.145Z,32.43
2022-09-21T13:52:46.931Z,31.54
2022-09-21T13:55:28.846Z,31.64
2022-09-21T13:57:58.831Z,32.19
2022-09-21T14:00:35.855Z,31.40
2022-09-21T14:03:38.472Z,32.05
2022-09-21T14:06:13.726Z,29.76
2022-09-21T14:08:49.812Z,30.75
2022-09-21T14:11:40.436Z,31.51
2022-09-21T14:14:12.789Z,31.15
2022-09-21T14:16:41.636Z,31.32
2022-09-21T14:19:17.039Z,30.59
2022-09-21T14:22:08.191Z,30.85
2022-09-21T14:24:42.010Z,30.09
2022-09-21T14:27:41.203Z,30.60
2022-09-21T14:30:24.066Z,30.46
2022-09-21T14:32:59.513Z,30.81
2022-09-21T14:35:33.696Z,30.34
2022-09-21T14:38:14.325Z,29.70
2022-09-21T14:40:48.262Z,29.92
2022-09-21T14:43:20.794Z,29.74
2022-09-21T14:45:55.864Z,29.34
2022-09-21T14:49:07.986Z,30.32
2022-09-21T14:54:53.486Z,30.45
2022-09-21T14:58:05.253Z,30.96
2022-09-21T15:00:47.750Z,29.92
2022-09-21T15:03:30.579Z,30.29
2022-09-21T15:06:42.715Z,30.22
2022-09-21T15:09:58.566Z,30.13
2022-09-21T15:12:38.045Z,29.84
2022-09-21T15:15:31.805Z,30.00
2022-09-21T15:18:01.775Z,30.24
2022-09-21T15:20:31.989Z,30.47
2022-09-21T15:23:00.025Z,30.86
2022-09-21T15:25:30.634Z,30.79
2022-09-21T15:27:57.171Z,30.96
2022-09-21T15:30:29.417Z,30.83
2022-09-21T15:33:00.896Z,30.94
2022-09-21T15:35:30.532Z,31.18
2022-09-21T15:38:00.729Z,31.37
2022-09-21T15:40:36.350Z,31.03
2022-09-21T15:43:16.826Z,31.35
2022-09-21T15:46:01.976Z,31.30
2022-09-21T15:48:34.066Z,31.34
2022-09-21T15:51:23.248Z,31.44
2022-09-21T15:53:55.695Z,31.00
2022-09-21T15:56:25.861Z,31.42
2022-09-21T15:59:08.660Z,31.21
2022-09-21T16:01:44.238Z,31.63
2022-09-21T16:04:21.783Z,31.29
2022-09-21T16:07:04.437Z,31.72
2022-09-21T16:09:44.977Z,31.91
2022-09-21T16:12:26.458Z,32.12
2022-09-21T16:14:53.814Z,31.95
2022-09-21T16:17:23.852Z,32.09
2022-09-21T16:19:56.609Z,32.24
2022-09-21T16:22:59.268Z,32.39
2022-09-21T16:25:27.859Z,32.13
2022-09-21T16:27:54.183Z,33.12
2022-09-21T16:30:44.747Z,32.15
2022-09-21T16:33:33.033Z,31.96
2022-09-21T16:36:03.917Z,32.08
2022-09-21T16:38:32.671Z,32.03
2022-09-21T16:40:59.858Z,32.22
2022-09-21T16:43:26.663Z,32.29
2022-09-21T16:45:52.944Z,32.49
2022-09-21T16:48:19.580Z,32.58
2022-09-21T16:50:46.310Z,32.83
2022-09-21T16:53:13.016Z,32.89
2022-09-21T16:55:42.801Z,32.88
2022-09-21T16:58:09.167Z,33.01
2022-09-21T17:00:40.411Z,33.07
2022-09-21T17:03:06.711Z,33.63
2022-09-21T17:05:33.029Z,33.65
2022-09-21T17:07:59.371Z,33.82
2022-09-21T17:10:31.657Z,33.76
2022-09-21T17:12:59.037Z,34.00
2022-09-21T17:15:27.049Z,34.17
2022-09-21T17:17:53.348Z,34.42
2022-09-21T17:20:38.106Z,34.44
2022-09-21T17:23:04.757Z,34.54
2022-09-21T17:25:32.724Z,34.99
2022-09-21T17:27:59.961Z,35.00
2022-09-21T17:30:27.168Z,35.25
2022-09-21T17:32:54.554Z,35.27
2022-09-21T17:35:38.711Z,36.06
2022-09-21T17:38:05.847Z,36.02
2022-09-21T17:40:32.553Z,35.54
2022-09-21T17:43:14.181Z,36.18
2022-09-21T17:45:56.934Z,36.60
2022-09-21T17:48:23.448Z,35.98
2022-09-21T17:50:50.547Z,35.95
2022-09-21T17:53:37.139Z,36.41
2022-09-21T17:56:36.102Z,36.71
2022-09-21T17:59:06.418Z,36.71
2022-09-21T18:01:39.456Z,37.15
2022-09-21T18:04:08.157Z,37.12
2022-09-21T18:06:34.538Z,37.16
2022-09-21T18:09:01.581Z,37.01
2022-09-21T18:11:49.902Z,37.54
2022-09-21T18:14:31.537Z,37.80
2022-09-21T18:17:15.523Z,38.17
2022-09-21T18:19:49.432Z,38.09
2022-09-21T18:22:43.755Z,38.19
2022-09-21T18:25:16.108Z,38.27
2022-09-21T18:27:48.524Z,38.17
2022-09-21T18:30:17.337Z,38.22
2022-09-21T18:32:58.001Z,38.88
2022-09-21T18:35:37.652Z,38.80
2022-09-21T18:38:22.216Z,39.02
2022-09-21T18:41:12.712Z,39.33
2022-09-21T18:43:50.674Z,39.50
2022-09-21T18:46:24.294Z,39.13
2022-09-21T18:49:02.746Z,39.50
2022-09-21T18:52:07.300Z,39.75
2022-09-21T18:54:33.804Z,38.93
2022-09-21T18:57:00.466Z,39.33
2022-09-21T18:59:31.699Z,39.33
2022-09-21T19:01:59.106Z,39.33
2022-09-21T19:04:26.050Z,39.72
2022-09-21T19:07:10.866Z,40.21
2022-09-21T19:09:44.584Z,40.23
2022-09-21T19:12:53.824Z,40.52
2022-09-21T19:15:59.666Z,40.67
2022-09-21T19:19:06.988Z,40.95
2022-09-21T19:21:45.710Z,40.87
2022-09-21T19:24:30.861Z,41.12
2022-09-21T19:27:26.150Z,40.98
2022-09-21T19:30:03.609Z,41.04
2022-09-21T19:32:33.041Z,41.07
2022-09-21T19:35:12.228Z,40.98
2022-09-21T19:37:39.339Z,40.98
2022-09-21T19:40:06.843Z,41.03
2022-09-21T19:42:59.261Z,42.03
2022-09-21T19:45:41.419Z,41.95
2022-09-21T19:48:14.953Z,41.79
2022-09-21T19:50:46.602Z,41.22
2022-09-21T19:53:53.178Z,41.64
2022-09-21T19:56:38.465Z,41.62
2022-09-21T19:59:23.762Z,41.41
2022-09-21T20:01:56.608Z,41.98
2022-09-21T20:04:34.452Z,42.84
2022-09-21T20:07:07.761Z,42.04
2022-09-21T20:09:41.999Z,42.65
2022-09-21T20:12:32.765Z,43.21
2022-09-21T20:15:11.277Z,43.03
2022-09-21T20:17:44.532Z,42.35
2022-09-21T20:20:23.987Z,43.28
2022-09-21T20:22:50.876Z,42.34
2022-09-21T20:25:31.104Z,42.92
2022-09-21T20:27:57.826Z,42.46
2022-09-21T20:30:27.196Z,42.82
2022-09-21T20:32:57.851Z,43.12
2022-09-21T20:35:27.430Z,43.06
2022-09-21T20:37:54.988Z,42.98
2022-09-21T20:40:28.624Z,43.00
2022-09-21T20:42:56.528Z,43.10
2022-09-21T20:45:22.825Z,43.17
2022-09-21T20:47:50.534Z,43.25
2022-09-21T20:50:17.688Z,43.29
2022-09-21T20:52:44.962Z,43.31
2022-09-21T20:55:17.234Z,43.99
2022-09-21T20:57:44.219Z,43.69
2022-09-21T21:00:13.696Z,44.21
2022-09-21T21:02:40.300Z,43.54
2022-09-21T21:05:07.982Z,44.12
2022-09-21T21:07:35.141Z,43.87
2022-09-21T21:10:02.112Z,44.02
2022-09-21T21:12:28.693Z,44.09
2022-09-21T21:14:55.674Z,43.74
2022-09-21T21:17:22.000Z,44.10
2022-09-21T21:19:48.405Z,43.99
2022-09-21T21:22:14.745Z,44.03
2022-09-21T21:24:41.150Z,44.13
2022-09-21T21:27:14.629Z,45.09
2022-09-21T21:29:41.917Z,44.29
2022-09-21T21:32:08.339Z,44.36
2022-09-21T21:34:34.670Z,44.07
2022-09-21T21:37:01.013Z,44.64
2022-09-21T21:39:27.360Z,44.26
2022-09-21T21:41:53.652Z,44.63
2022-09-21T21:44:19.964Z,44.97
2022-09-21T21:46:46.244Z,44.53
2022-09-21T21:49:13.380Z,44.84
2022-09-21T21:51:39.978Z,44.65
2022-09-21T21:54:06.354Z,44.85
2022-09-21T21:56:32.801Z,44.99
2022-09-21T21:58:59.111Z,44.81
2022-09-21T22:01:27.976Z,45.33
2022-09-21T22:03:59.814Z,45.65
2022-09-21T22:06:27.365Z,44.98
2022-09-21T22:08:55.399Z,45.27
2022-09-21T22:11:23.565Z,45.01
2022-09-21T22:13:50.353Z,45.46
2022-09-21T22:16:19.100Z,45.26
2022-09-21T22:18:46.278Z,45.30
2022-09-21T22:21:15.419Z,45.24
2022-09-21T22:23:42.569Z,45.38
2022-09-21T22:26:17.015Z,45.76
2022-09-21T22:28:52.793Z,45.52
2022-09-21T22:31:21.590Z,45.70
2022-09-21T22:33:48.655Z,45.48
2022-09-21T22:36:17.856Z,45.63
2022-09-21T22:38:45.700Z,45.57
2022-09-21T22:41:27.580Z,46.40
2022-09-21T22:43:55.393Z,45.79
2022-09-21T22:46:22.904Z,45.73
2022-09-21T22:48:49.582Z,45.78
2022-09-21T22:51:17.584Z,45.77
2022-09-21T22:53:44.722Z,45.71
2022-09-21T22:56:13.444Z,46.05
2022-09-21T22:58:41.928Z,45.96
2022-09-21T23:01:11.198Z,45.87
2022-09-21T23:03:38.620Z,45.69
2022-09-21T23:06:06.956Z,46.00
2022-09-21T23:08:34.270Z,45.51
2022-09-21T23:11:13.691Z,46.68
2022-09-21T23:13:40.567Z,45.79
2022-09-21T23:16:09.723Z,46.15
2022-09-21T23:18:37.148Z,45.87
2022-09-21T23:21:05.965Z,46.10
2022-09-21T23:23:33.116Z,46.18
2022-09-21T23:26:20.241Z,46.90
2022-09-21T23:28:51.964Z,46.56
2022-09-21T23:31:18.398Z,46.21
2022-09-21T23:33:53.154Z,46.72
2022-09-21T23:36:23.437Z,46.26
2022-09-21T23:38:50.451Z,46.48
2022-09-21T23:41:20.644Z,46.33
2022-09-21T23:43:47.523Z,46.23
2022-09-21T23:46:17.591Z,46.73
2022-09-21T23:48:44.825Z,46.45
2022-09-21T23:51:11.748Z,46.24
2022-09-21T23:53:38.858Z,46.28
2022-09-21T23:56:06.307Z,46.61
2022-09-21T23:58:33.311Z,46.23
